Time;durP1;ratioP1;P1;durP2;ratioP2;P2;SDS_P1;SDS_P2;PMS_P1;PMS_P2;Temp;Humidity;BMP_temperature;BMP_pressure;BME280_temperature;BME280_humidity;BME280_pressure;Samples;Min_cycle;Max_cycle;Signal;HPM_P1;HPM_P2
2022/06/28 00:01:01;;;;;;;9.43;4.53;;;;;;;24.10;53.03;100066.59;4212407;28;20247;-46
2022/06/28 00:03:28;;;;;;;8.88;4.90;;;;;;;24.15;52.76;100063.97;4216496;28;20694;-48
2022/06/28 00:05:54;;;;;;;9.77;4.63;;;;;;;24.05;53.14;100061.06;4210892;28;20428;-45
2022/06/28 00:08:21;;;;;;;6.63;4.07;;;;;;;24.11;53.13;100075.56;4212267;28;20841;-47
2022/06/28 00:10:47;;;;;;;11.27;4.10;;;;;;;24.09;53.32;100080.41;4200234;28;20310;-45
2022/06/28 00:13:14;;;;;;;8.80;4.23;;;;;;;24.04;53.72;100083.03;4210435;28;21011;-49
2022/06/28 00:18:26;;;;;;;8.68;4.47;;;;;;;23.97;53.79;100073.13;4220558;28;20558;-44
2022/06/28 00:20:52;;;;;;;9.27;4.65;;;;;;;23.95;53.87;100091.59;4211457;28;21665;-48
2022/06/28 00:23:19;;;;;;;10.15;4.72;;;;;;;23.84;54.34;100086.19;4213482;28;21138;-45
2022/06/28 00:25:46;;;;;;;7.87;4.30;;;;;;;23.82;54.41;100093.75;4199717;28;20334;-47
2022/06/28 00:28:12;;;;;;;7.17;4.23;;;;;;;23.82;54.57;100094.59;4197964;28;21244;-45
2022/06/28 00:30:39;;;;;;;8.60;4.50;;;;;;;23.77;54.83;100084.44;4218597;28;20247;-46
2022/06/28 00:33:05;;;;;;;8.70;4.77;;;;;;;23.76;55.01;100090.94;4214272;28;20236;-45
2022/06/28 00:35:32;;;;;;;7.37;5.00;;;;;;;23.64;55.53;100089.28;4214071;28;20809;-46
2022/06/28 00:37:58;;;;;;;7.80;5.33;;;;;;;23.67;55.53;100088.78;4209977;28;20757;-48
2022/06/28 00:40:25;;;;;;;7.83;4.87;;;;;;;23.62;55.79;100086.78;4215847;28;20236;-44
2022/06/28 00:42:51;;;;;;;9.17;4.90;;;;;;;23.58;55.92;100086.47;4211142;28;21836;-49
2022/06/28 00:45:18;;;;;;;14.47;4.83;;;;;;;23.62;55.86;100075.94;4212546;28;21161;-46
2022/06/28 00:47:45;;;;;;;11.37;4.77;;;;;;;23.58;55.99;100082.94;4206408;28;20237;-46
2022/06/28 00:50:12;;;;;;;8.57;4.40;;;;;;;23.50;56.26;100084.09;4212333;28;21718;-49
2022/06/28 00:53:01;;;;;;;11.17;5.13;;;;;;;23.42;56.76;100084.47;4209156;28;20244;-47
2022/06/28 00:55:27;;;;;;;10.50;4.90;;;;;;;23.37;56.94;100095.25;4213997;28;21066;-45
2022/06/28 00:57:54;;;;;;;8.13;4.77;;;;;;;23.42;57.01;100098.06;4199717;28;20257;-46
2022/06/28 01:00:21;;;;;;;9.68;4.90;;;;;;;23.32;57.37;100095.09;4188879;28;21042;-47
2022/06/28 01:02:48;;;;;;;8.17;5.10;;;;;;;23.25;57.54;100094.41;4194949;28;20245;-47
2022/06/28 01:05:14;;;;;;;11.57;5.07;;;;;;;23.21;57.56;100093.25;4192767;28;20241;-51
2022/06/28 01:07:41;;;;;;;12.27;5.67;;;;;;;23.18;57.81;100092.66;4196277;28;22246;-45
2022/06/28 01:10:10;;;;;;;9.57;5.30;;;;;;;23.17;58.17;100092.88;4193057;28;21692;-48
2022/06/28 01:12:36;;;;;;;7.77;4.83;;;;;;;23.09;58.50;100088.63;4188661;28;20288;-44
2022/06/28 01:15:04;;;;;;;9.13;5.20;;;;;;;23.07;58.47;100090.75;4191781;28;20236;-45
2022/06/28 01:17:31;;;;;;;9.63;5.37;;;;;;;23.07;58.64;100088.03;4187070;28;22579;-44
2022/06/28 01:19:58;;;;;;;9.10;4.77;;;;;;;23.09;58.62;100091.34;4178822;28;20740;-42
2022/06/28 01:22:28;;;;;;;9.33;5.43;;;;;;;23.08;58.48;100094.28;4196242;28;20342;-46
2022/06/28 01:24:56;;;;;;;11.57;5.17;;;;;;;23.02;58.97;100090.63;4206538;28;20230;-46
2022/06/28 01:27:22;;;;;;;10.83;5.53;;;;;;;23.01;59.06;100091.69;4168346;28;20237;-46
2022/06/28 01:29:49;;;;;;;8.33;5.17;;;;;;;22.99;59.16;100093.00;4176154;28;22212;-44
2022/06/28 01:32:16;;;;;;;11.73;5.13;;;;;;;22.94;59.39;100099.09;4166255;28;20237;-46
2022/06/28 01:34:42;;;;;;;8.17;4.73;;;;;;;23.05;58.77;100100.19;4181241;28;20864;-48
2022/06/28 01:37:10;;;;;;;6.43;4.57;;;;;;;22.93;59.19;100100.97;4183277;28;20244;-48
2022/06/28 01:39:37;;;;;;;7.80;5.10;;;;;;;22.93;59.26;100105.59;4195836;28;20251;-44
2022/06/28 01:42:04;;;;;;;11.40;5.03;;;;;;;22.90;59.46;100100.63;4203365;28;20360;-43
2022/06/28 01:44:31;;;;;;;8.23;5.47;;;;;;;22.86;59.60;100104.88;4189984;28;20275;-47
2022/06/28 01:47:00;;;;;;;6.70;4.90;;;;;;;22.88;59.94;100092.72;4200113;28;20308;-45
2022/06/28 01:49:26;;;;;;;16.20;5.60;;;;;;;22.86;59.80;100102.16;4192107;28;20242;-74
2022/06/28 01:51:53;;;;;;;7.73;5.13;;;;;;;22.84;59.76;100098.84;4200225;28;21124;-71
2022/06/28 01:54:20;;;;;;;9.17;5.20;;;;;;;22.69;60.76;100105.56;4192572;28;20248;-71
2022/06/28 01:56:46;;;;;;;11.57;5.20;;;;;;;22.71;60.60;100098.00;4200727;28;22487;-69
2022/06/28 01:59:13;;;;;;;12.70;5.50;;;;;;;22.64;61.16;100100.00;4203303;28;23696;-71
2022/06/28 02:01:39;;;;;;;8.70;5.50;;;;;;;22.54;61.29;100097.00;4199432;28;20236;-71
2022/06/28 02:04:26;;;;;;;10.40;5.50;;;;;;;22.52;61.73;100089.13;4204143;28;22905;-70
2022/06/28 02:06:53;;;;;;;10.50;5.13;;;;;;;22.57;61.35;100083.00;4211067;28;21123;-71
2022/06/28 02:09:20;;;;;;;8.13;5.40;;;;;;;22.54;61.50;100083.47;4187941;28;21867;-44
2022/06/28 02:11:47;;;;;;;7.53;4.60;;;;;;;22.51;61.83;100087.47;4196390;28;20260;-43
2022/06/28 02:14:13;;;;;;;12.83;5.57;;;;;;;22.48;62.11;100079.81;4188609;28;20233;-44
2022/06/28 02:16:41;;;;;;;8.97;5.60;;;;;;;22.55;61.77;100085.13;4205053;28;21160;-43
2022/06/28 02:19:08;;;;;;;8.53;5.70;;;;;;;22.46;62.03;100072.97;4208775;28;20232;-44
2022/06/28 02:21:43;;;;;;;11.40;5.73;;;;;;;22.34;62.94;100078.34;4203910;28;20287;-44
2022/06/28 02:24:10;;;;;;;8.07;5.93;;;;;;;22.40;62.67;100080.13;4199568;28;20236;-44
2022/06/28 02:26:37;;;;;;;7.87;5.50;;;;;;;22.39;62.50;100091.22;4203242;28;23027;-43
2022/06/28 02:29:07;;;;;;;11.03;5.57;;;;;;;22.36;62.81;100095.22;4195827;28;20236;-44
2022/06/28 02:31:36;;;;;;;10.23;5.17;;;;;;;22.37;63.01;100096.84;4209362;28;20245;-45
2022/06/28 02:34:04;;;;;;;9.70;5.57;;;;;;;22.37;62.92;100098.75;4203456;28;21344;-42
2022/06/28 02:41:49;;;;;;;13.50;5.10;;;;;;;22.31;63.09;100092.34;4217828;28;20663;-43
2022/06/28 02:44:16;;;;;;;9.23;5.83;;;;;;;22.27;63.45;100110.16;4197428;28;20282;-42
2022/06/28 02:46:42;;;;;;;13.40;5.53;;;;;;;22.30;63.31;100107.78;4206784;28;20943;-50
2022/06/28 02:49:09;;;;;;;9.30;6.07;;;;;;;22.33;63.28;100103.78;4195715;28;20305;-42
2022/06/28 02:51:36;;;;;;;12.77;5.70;;;;;;;22.25;63.54;100107.66;4214827;28;20474;-43
2022/06/28 02:54:06;;;;;;;10.57;5.63;;;;;;;22.25;63.89;100112.25;4231224;28;21187;-41
2022/06/28 02:56:33;;;;;;;9.30;5.83;;;;;;;22.24;63.85;100108.72;4230698;28;21663;-45
2022/06/28 02:59:00;;;;;;;10.00;5.50;;;;;;;22.25;63.88;100110.38;4225402;28;20239;-46
2022/06/28 03:01:26;;;;;;;9.13;5.73;;;;;;;22.14;64.35;100105.69;4188682;28;21478;-43
2022/06/28 03:03:53;;;;;;;10.03;6.17;;;;;;;22.12;64.49;100105.09;4190479;28;21441;-42
2022/06/28 03:06:20;;;;;;;11.17;5.87;;;;;;;22.13;64.64;100101.34;4173401;28;20271;-42
2022/06/28 03:08:46;;;;;;;9.33;6.33;;;;;;;22.19;64.45;100096.88;4210029;28;20241;-42
2022/06/28 03:11:13;;;;;;;13.87;5.90;;;;;;;22.14;64.62;100092.13;4208992;28;20307;-44
2022/06/28 03:13:39;;;;;;;10.10;6.03;;;;;;;22.05;65.30;100096.22;4221785;28;20286;-65
2022/06/28 03:16:06;;;;;;;8.43;5.63;;;;;;;22.05;65.24;100104.34;4205741;28;25130;-63
2022/06/28 03:18:32;;;;;;;12.30;5.90;;;;;;;22.03;65.60;100106.47;4212621;28;20229;-65
2022/06/28 03:20:59;;;;;;;10.67;5.87;;;;;;;21.97;65.59;100099.25;4208967;28;20577;-62
2022/06/28 03:23:26;;;;;;;10.43;6.07;;;;;;;22.00;65.47;100112.34;4193167;28;21118;-61
2022/06/28 03:25:52;;;;;;;11.10;6.13;;;;;;;22.04;65.56;100113.56;4181388;28;20364;-64
2022/06/28 03:28:19;;;;;;;10.20;5.63;;;;;;;22.01;66.00;100109.41;4219380;28;20295;-63
2022/06/28 03:30:51;;;;;;;14.60;5.90;;;;;;;22.14;65.15;100100.28;4206620;28;21410;-65
2022/06/28 03:33:17;;;;;;;8.40;6.20;;;;;;;22.10;65.22;100105.34;4195503;28;20245;-62
2022/06/28 03:35:44;;;;;;;9.77;5.73;;;;;;;22.11;65.51;100103.44;4197952;28;20368;-63
2022/06/28 03:38:10;;;;;;;12.33;6.60;;;;;;;22.19;64.92;100100.41;4190949;28;20371;-62
2022/06/28 03:40:37;;;;;;;11.43;5.80;;;;;;;22.25;64.83;100098.72;4197065;28;20415;-63
2022/06/28 03:43:06;;;;;;;9.27;5.93;;;;;;;22.20;64.88;100101.25;4205198;28;20232;-64
2022/06/28 03:45:32;;;;;;;8.70;5.37;;;;;;;22.21;64.85;100101.03;4189333;28;20238;-63
2022/06/28 03:47:59;;;;;;;13.30;6.67;;;;;;;22.28;64.62;100109.91;4165680;28;20981;-60
2022/06/28 03:50:25;;;;;;;12.17;5.80;;;;;;;22.35;64.25;100115.22;4207383;28;22210;-63
2022/06/28 03:52:52;;;;;;;12.77;5.57;;;;;;;22.41;64.26;100118.94;4204401;28;20322;-62
2022/06/28 03:55:18;;;;;;;9.23;5.93;;;;;;;22.59;63.59;100123.44;4199944;28;20314;-67
2022/06/28 03:57:45;;;;;;;10.10;6.13;;;;;;;22.58;63.65;100121.81;4209825;28;22052;-66
2022/06/28 04:00:12;;;;;;;13.63;5.87;;;;;;;22.75;62.97;100120.06;4206437;28;20243;-66
2022/06/28 04:02:39;;;;;;;10.60;5.93;;;;;;;22.81;62.63;100129.16;4234630;28;25708;-65
2022/06/28 04:05:06;;;;;;;10.07;5.70;;;;;;;22.83;62.84;100124.31;4206844;28;22552;-68
2022/06/28 04:07:36;;;;;;;9.90;5.77;;;;;;;22.90;62.50;100122.34;4215730;28;21705;-65
2022/06/28 04:10:03;;;;;;;8.87;5.40;;;;;;;22.99;62.04;100120.94;4222403;28;20243;-66
2022/06/28 04:12:29;;;;;;;12.70;5.63;;;;;;;23.17;61.70;100112.69;4198133;28;20586;-65
2022/06/28 04:14:56;;;;;;;12.20;5.50;;;;;;;23.12;61.48;100115.28;4205806;28;20237;-64
2022/06/28 04:17:23;;;;;;;11.53;5.83;;;;;;;23.10;61.41;100105.75;4198657;28;20236;-66
2022/06/28 04:19:49;;;;;;;13.87;6.00;;;;;;;23.11;61.52;100108.22;4211857;28;20625;-70
2022/06/28 04:22:16;;;;;;;12.80;5.90;;;;;;;23.18;61.31;100108.94;4206978;28;20461;-66
2022/06/28 04:24:42;;;;;;;9.17;5.30;;;;;;;23.36;60.53;100109.88;4208092;28;20246;-68
2022/06/28 04:27:09;;;;;;;15.23;5.90;;;;;;;23.43;60.29;100099.69;4215622;28;22766;-69
2022/06/28 04:29:35;;;;;;;14.13;5.90;;;;;;;23.54;59.55;100104.28;4203770;28;20236;-67
2022/06/28 04:32:02;;;;;;;12.33;5.53;;;;;;;23.67;59.29;100102.38;4213837;28;20224;-67
2022/06/28 04:34:31;;;;;;;11.67;5.90;;;;;;;23.71;59.15;100095.41;4206351;28;20239;-66
2022/06/28 04:36:57;;;;;;;11.57;5.90;;;;;;;23.82;58.44;100091.03;4207325;28;20257;-66
2022/06/28 04:39:24;;;;;;;12.50;5.33;;;;;;;23.93;58.06;100093.72;4210833;28;20887;-68
2022/06/28 04:41:51;;;;;;;12.40;5.87;;;;;;;24.00;57.85;100093.59;4232776;28;21659;-67
2022/06/28 04:44:17;;;;;;;11.47;5.43;;;;;;;24.07;57.38;100093.41;4208905;28;20264;-68
2022/06/28 04:46:44;;;;;;;17.50;5.00;;;;;;;24.06;57.29;100079.00;4185100;28;20248;-67
2022/06/28 04:49:10;;;;;;;9.73;5.33;;;;;;;24.10;57.04;100076.66;4225297;28;20245;-66
2022/06/28 04:51:39;;;;;;;11.70;5.50;;;;;;;24.26;56.94;100069.59;4203058;28;21097;-69
2022/06/28 04:54:06;;;;;;;14.90;5.40;;;;;;;24.26;56.82;100075.88;4208922;28;20228;-69
2022/06/28 04:56:32;;;;;;;10.20;5.50;;;;;;;24.33;56.06;100071.09;4196839;28;20233;-68
2022/06/28 04:58:59;;;;;;;9.93;5.63;;;;;;;24.37;56.11;100069.53;4225073;28;20678;-66
2022/06/28 05:01:25;;;;;;;9.63;5.07;;;;;;;24.46;55.75;100069.13;4206098;28;20233;-66
2022/06/28 05:03:52;;;;;;;13.07;5.60;;;;;;;24.47;55.97;100071.66;4199820;28;20236;-65
2022/06/28 05:06:18;;;;;;;11.07;4.97;;;;;;;24.63;55.21;100065.38;4201433;28;21241;-64
2022/06/28 05:08:52;;;;;;;18.57;5.90;;;;;;;24.69;54.97;100063.56;4209362;28;20236;-64
2022/06/28 05:11:33;;;;;;;15.37;5.00;;;;;;;24.67;55.55;100062.16;4208555;28;20236;-75
2022/06/28 05:14:00;;;;;;;11.97;5.20;;;;;;;24.64;55.51;100060.75;4250884;28;20244;-72
2022/06/28 05:16:29;;;;;;;11.10;5.60;;;;;;;24.95;55.16;100061.25;4266389;28;20704;-71
2022/06/28 05:18:55;;;;;;;13.73;5.67;;;;;;;25.12;53.60;100072.09;4268185;28;20381;-72
2022/06/28 05:21:22;;;;;;;16.33;5.60;;;;;;;25.21;53.40;100059.75;4253656;28;20513;-73
2022/06/28 05:23:52;;;;;;;8.53;5.27;;;;;;;25.60;52.27;100057.81;4284751;28;20240;-71
2022/06/28 05:26:19;;;;;;;10.70;5.23;;;;;;;26.03;51.02;100066.22;4246729;28;20236;-73
2022/06/28 05:28:46;;;;;;;11.77;5.60;;;;;;;26.58;48.99;100073.34;4260146;28;21964;-72
2022/06/28 05:31:12;;;;;;;14.17;5.40;;;;;;;26.80;48.13;100070.50;4256978;28;20239;-72
2022/06/28 05:33:39;;;;;;;16.87;5.23;;;;;;;27.25;47.31;100077.41;4205256;28;20249;-72
2022/06/28 05:36:06;;;;;;;16.23;5.27;;;;;;;27.33;46.56;100068.72;4203712;28;20299;-72
2022/06/28 05:38:32;;;;;;;11.10;4.88;;;;;;;27.46;46.26;100077.50;4220861;28;20350;-72
2022/06/28 05:40:59;;;;;;;9.93;5.72;;;;;;;28.12;45.43;100069.59;4231786;28;20410;-72
2022/06/28 05:43:25;;;;;;;13.68;5.35;;;;;;;29.16;42.13;100085.81;4205539;28;21853;-71
2022/06/28 05:45:52;;;;;;;10.20;5.20;;;;;;;29.85;39.95;100089.72;4223247;28;21177;-73
2022/06/28 05:48:19;;;;;;;11.02;4.55;;;;;;;30.35;37.96;100103.44;4217883;28;20331;-71
2022/06/28 05:50:47;;;;;;;14.20;4.55;;;;;;;30.42;37.20;100103.94;4219096;28;20278;-70
2022/06/28 05:53:14;;;;;;;9.40;5.00;;;;;;;30.65;37.04;100109.84;4215886;28;20625;-73
2022/06/28 05:55:40;;;;;;;14.07;4.40;;;;;;;30.60;36.76;100105.19;4213543;28;21109;-74
2022/06/28 05:58:07;;;;;;;11.52;4.78;;;;;;;30.44;37.17;100109.97;4214413;28;20301;-76
2022/06/28 06:00:37;;;;;;;7.25;4.45;;;;;;;30.62;37.00;100111.19;4207611;28;25396;-72
2022/06/28 06:03:05;;;;;;;14.57;5.38;;;;;;;30.96;36.48;100107.66;4208588;28;20255;-72
2022/06/28 06:05:32;;;;;;;10.02;4.38;;;;;;;31.84;34.78;100113.84;4209980;28;20274;-72
2022/06/28 06:07:58;;;;;;;12.57;4.05;;;;;;;32.14;33.64;100114.59;4206466;28;20443;-73
2022/06/28 06:10:25;;;;;;;10.52;4.65;;;;;;;32.90;32.43;100109.06;4193853;28;20549;-74
2022/06/28 06:12:51;;;;;;;7.90;4.78;;;;;;;32.87;32.46;100104.94;4211171;28;21589;-72
2022/06/28 06:15:18;;;;;;;8.30;4.70;;;;;;;33.48;31.44;100107.72;4202243;28;20901;-74
2022/06/28 06:17:44;;;;;;;13.88;4.70;;;;;;;33.37;31.17;100104.34;4216828;28;20304;-72
2022/06/28 06:20:11;;;;;;;8.10;4.35;;;;;;;32.95;32.17;100100.69;4217013;28;20605;-71
2022/06/28 06:22:39;;;;;;;13.52;4.88;;;;;;;33.72;30.89;100102.03;4211645;28;20648;-72
2022/06/28 06:25:06;;;;;;;13.73;4.93;;;;;;;34.48;29.61;100116.88;4203617;28;20246;-74
2022/06/28 06:27:35;;;;;;;14.88;5.22;;;;;;;35.17;28.95;100124.09;4208069;28;20634;-72
2022/06/28 06:30:03;;;;;;;17.85;4.47;;;;;;;36.21;27.33;100128.34;4222266;28;20386;-73
2022/06/28 06:32:29;;;;;;;9.98;4.78;;;;;;;35.66;27.65;100127.72;4224293;28;20237;-73
2022/06/28 06:34:56;;;;;;;7.78;4.63;;;;;;;35.82;27.01;100128.06;4200973;28;20259;-72
2022/06/28 06:37:22;;;;;;;8.50;4.45;;;;;;;35.84;26.39;100134.13;4213752;28;20236;-74
2022/06/28 06:39:49;;;;;;;9.05;4.60;;;;;;;35.68;27.24;100133.78;4212363;28;20659;-71
2022/06/28 06:42:15;;;;;;;14.38;4.90;;;;;;;35.27;27.59;100126.56;4211302;28;20602;-76
2022/06/28 06:44:42;;;;;;;11.75;5.10;;;;;;;34.25;29.48;100113.31;4196660;28;20236;-71
2022/06/28 06:47:09;;;;;;;14.35;5.07;;;;;;;34.23;29.81;100123.84;4209035;28;20531;-72
2022/06/28 06:49:35;;;;;;;8.60;5.10;;;;;;;35.03;28.21;100121.38;4214451;28;25724;-72
2022/06/28 06:52:02;;;;;;;21.45;5.10;;;;;;;35.64;27.76;100127.22;4197946;28;21206;-73
2022/06/28 06:54:29;;;;;;;11.65;4.40;;;;;;;36.67;25.71;100129.69;4201298;28;21514;-72
2022/06/28 06:56:55;;;;;;;9.52;4.50;;;;;;;37.39;24.63;100122.47;4205349;28;21226;-73
2022/06/28 06:59:22;;;;;;;13.90;4.43;;;;;;;37.32;24.67;100124.94;4205059;28;20244;-73
2022/06/28 07:01:48;;;;;;;14.80;4.43;;;;;;;37.69;24.06;100130.88;4205127;28;20387;-72
2022/06/28 07:04:16;;;;;;;16.95;4.85;;;;;;;38.14;24.07;100131.09;4209929;28;22704;-74
2022/06/28 07:06:43;;;;;;;12.50;4.88;;;;;;;37.02;25.15;100132.38;4210564;28;20295;-73
2022/06/28 07:09:09;;;;;;;9.15;4.50;;;;;;;37.17;25.08;100138.22;4197559;28;21201;-72
2022/06/28 07:11:36;;;;;;;9.05;4.50;;;;;;;37.26;24.41;100132.66;4205273;28;20256;-73
2022/06/28 07:14:03;;;;;;;13.13;4.90;;;;;;;37.58;24.25;100135.97;4194895;28;21643;-73
2022/06/28 07:16:29;;;;;;;11.02;4.40;;;;;;;36.92;24.71;100126.03;4203355;28;20303;-74
2022/06/28 07:18:57;;;;;;;8.57;4.40;;;;;;;35.38;26.71;100123.50;4207348;28;20316;-73
2022/06/28 07:21:25;;;;;;;13.65;5.30;;;;;;;34.41;28.11;100110.16;4213311;28;20278;-71
2022/06/28 07:23:51;;;;;;;16.55;4.72;;;;;;;34.41;28.69;100110.97;4210892;28;20236;-73
2022/06/28 07:26:18;;;;;;;13.98;4.78;;;;;;;34.46;29.32;100105.34;4214405;28;20333;-72
2022/06/28 07:28:45;;;;;;;9.23;4.50;;;;;;;33.69;29.73;100108.97;4221222;28;20442;-72
2022/06/28 07:31:12;;;;;;;10.45;4.78;;;;;;;33.54;30.10;100114.78;4206037;28;25467;-75
2022/06/28 07:33:39;;;;;;;14.00;5.07;;;;;;;33.59;30.23;100115.50;4201279;28;21778;-75
2022/06/28 07:36:06;;;;;;;8.63;4.72;;;;;;;33.26;30.44;100122.22;4213884;28;22761;-72
2022/06/28 07:38:33;;;;;;;10.70;4.53;;;;;;;33.08;31.74;100116.44;4224199;28;20244;-72
2022/06/28 07:41:00;;;;;;;9.43;4.22;;;;;;;32.28;31.58;100090.72;4201714;28;20241;-73
2022/06/28 07:43:26;;;;;;;8.60;3.95;;;;;;;32.08;32.24;100104.81;4208068;28;21499;-73
2022/06/28 07:45:53;;;;;;;8.52;3.78;;;;;;;32.14;32.15;100098.09;4190165;28;21658;-71
2022/06/28 07:48:20;;;;;;;7.97;4.05;;;;;;;32.42;31.40;100098.22;4206270;28;20388;-72
2022/06/28 07:53:33;;;;;;;10.02;3.88;;;;;;;32.55;31.64;100092.81;4218913;28;20232;-76
2022/06/28 07:56:00;;;;;;;14.75;4.55;;;;;;;32.93;31.28;100100.16;4209554;28;22048;-73
2022/06/28 07:58:26;;;;;;;12.65;4.20;;;;;;;32.94;30.68;100108.16;4208703;28;22069;-73
2022/06/28 08:00:53;;;;;;;7.85;3.65;;;;;;;32.70;31.42;100105.50;4195595;28;21167;-73
2022/06/28 08:03:19;;;;;;;6.32;3.70;;;;;;;33.04;30.05;100114.56;4198074;28;22204;-74
2022/06/28 08:05:46;;;;;;;7.55;3.75;;;;;;;32.95;30.47;100107.00;4180645;28;20236;-63
2022/06/28 08:08:12;;;;;;;6.20;3.80;;;;;;;33.19;29.47;100117.91;4187508;28;23553;-73
2022/06/28 08:10:40;;;;;;;6.93;3.90;;;;;;;31.85;31.06;100100.94;4196997;28;21335;-72
2022/06/28 08:13:06;;;;;;;8.40;3.70;;;;;;;31.44;31.86;100116.00;4187049;28;21405;-69
2022/06/28 08:15:33;;;;;;;13.98;3.72;;;;;;;31.22;32.78;100116.47;4187341;28;20562;-70
2022/06/28 08:17:59;;;;;;;11.18;3.97;;;;;;;31.63;31.99;100115.22;4202139;28;21003;-70
2022/06/28 08:20:29;;;;;;;9.07;3.55;;;;;;;31.58;31.67;100107.84;4188150;28;20517;-70
2022/06/28 08:22:55;;;;;;;6.75;3.42;;;;;;;31.45;31.04;100130.59;4203357;28;20236;-71
2022/06/28 08:25:22;;;;;;;15.02;3.72;;;;;;;30.99;32.80;100106.25;4199561;28;20244;-70
2022/06/28 08:27:49;;;;;;;9.65;3.60;;;;;;;31.48;31.60;100114.31;4191656;28;20241;-70
2022/06/28 08:30:15;;;;;;;6.07;3.50;;;;;;;31.42;31.42;100129.25;4186888;28;21304;-72
2022/06/28 08:32:42;;;;;;;5.93;3.83;;;;;;;31.23;31.44;100122.78;4175444;28;20728;-72
2022/06/28 08:35:09;;;;;;;7.38;3.00;;;;;;;31.41;31.39;100113.84;4195602;28;20320;-73
2022/06/28 08:37:35;;;;;;;5.30;3.10;;;;;;;31.54;31.33;100118.66;4179841;28;20236;-72
2022/06/28 08:40:02;;;;;;;6.68;3.75;;;;;;;31.53;31.78;100122.50;4191356;28;20628;-73
2022/06/28 08:42:34;;;;;;;4.75;3.45;;;;;;;31.79;31.55;100119.44;4175886;28;20233;-76
2022/06/28 08:45:02;;;;;;;6.10;3.53;;;;;;;32.02;30.54;100122.50;4171626;28;25075;-73
2022/06/28 08:47:35;;;;;;;7.93;3.33;;;;;;;32.24;29.86;100119.13;4178449;28;20237;-70
2022/06/28 08:50:13;;;;;;;10.27;4.18;;;;;;;32.15;30.33;100119.00;4174459;28;20234;-72
2022/06/28 08:52:43;;;;;;;15.52;4.18;;;;;;;32.15;30.62;100117.06;4200346;28;20288;-71
2022/06/28 08:55:10;;;;;;;9.73;3.50;;;;;;;32.25;30.41;100121.59;4180866;28;20294;-72
2022/06/28 08:57:43;;;;;;;6.03;3.55;;;;;;;32.48;29.69;100122.66;4185281;28;20242;-71
2022/06/28 09:00:11;;;;;;;6.97;3.30;;;;;;;32.63;29.39;100121.59;4178138;28;20288;-72
2022/06/28 09:02:39;;;;;;;5.82;3.63;;;;;;;32.26;29.98;100112.22;4201527;28;20263;-71
2022/06/28 09:05:06;;;;;;;6.90;3.95;;;;;;;32.08;31.57;100107.56;4187502;28;20237;-72
2022/06/28 09:07:33;;;;;;;6.85;4.22;;;;;;;32.00;32.28;100113.69;4195452;28;20237;-71
2022/06/28 09:10:00;;;;;;;8.80;4.05;;;;;;;32.08;32.20;100105.59;4188385;28;20237;-73
2022/06/28 09:12:32;;;;;;;7.88;4.20;;;;;;;32.19;31.72;100098.00;4185762;28;20240;-72
2022/06/28 09:14:59;;;;;;;14.90;4.50;;;;;;;31.87;31.87;100105.03;4205867;28;20237;-71
2022/06/28 09:17:28;;;;;;;13.18;4.20;;;;;;;32.03;31.54;100091.09;4191012;28;23095;-70
2022/06/28 09:20:00;;;;;;;8.10;3.67;;;;;;;32.25;31.52;100088.56;4177780;28;20237;-70
2022/06/28 09:22:33;;;;;;;5.68;3.92;;;;;;;32.25;30.68;100098.78;4178541;28;20304;-72
2022/06/28 09:25:01;;;;;;;7.35;3.88;;;;;;;32.16;29.93;100088.41;4188182;28;22772;-72
2022/06/28 09:27:34;;;;;;;11.38;3.53;;;;;;;32.35;29.74;100085.63;4184666;28;21067;-74
2022/06/28 09:30:03;;;;;;;9.98;3.63;;;;;;;32.46;29.46;100088.25;4179411;28;20307;-71
2022/06/28 09:32:31;;;;;;;6.95;3.22;;;;;;;32.33;30.02;100085.13;4177662;28;21776;-74
2022/06/28 09:34:58;;;;;;;7.75;3.78;;;;;;;32.16;30.74;100082.91;4188045;28;20234;-71
2022/06/28 09:37:51;;;;;;;11.75;3.47;;;;;;;31.98;30.64;100082.91;4179657;28;22104;-68
2022/06/28 09:40:31;;;;;;;7.82;3.55;;;;;;;32.07;30.98;100070.09;4182385;28;20345;-72
2022/06/28 09:43:13;;;;;;;5.93;3.38;;;;;;;32.00;30.25;100080.66;4173088;28;20309;-72
2022/06/28 09:45:46;;;;;;;5.43;3.53;;;;;;;32.13;30.06;100078.00;4178158;28;20266;-71
2022/06/28 09:48:17;;;;;;;4.80;3.38;;;;;;;32.45;29.89;100078.34;4170168;28;20231;-75
2022/06/28 09:50:44;;;;;;;7.40;3.17;;;;;;;32.42;29.68;100068.75;4177863;28;20306;-73
2022/06/28 09:53:14;;;;;;;4.93;3.50;;;;;;;32.45;30.37;100078.34;4194842;28;21642;-72
2022/06/28 09:55:42;;;;;;;8.30;3.50;;;;;;;32.22;30.80;100078.16;4188710;28;20237;-53
2022/06/28 09:58:09;;;;;;;8.02;4.10;;;;;;;31.83;31.97;100073.72;4194556;28;25319;-70
2022/06/28 10:00:39;;;;;;;6.55;3.95;;;;;;;31.90;32.49;100076.09;4183003;28;20668;-72
2022/06/28 10:03:07;;;;;;;9.27;3.78;;;;;;;31.69;32.78;100086.56;4186256;28;22812;-64
2022/06/28 10:05:33;;;;;;;8.60;3.80;;;;;;;31.71;33.13;100076.06;4193246;28;20252;-71
2022/06/28 10:08:01;;;;;;;4.90;3.25;;;;;;;32.04;32.33;100067.97;4197446;28;20249;-72
2022/06/28 10:10:29;;;;;;;6.63;3.60;;;;;;;32.04;31.99;100054.19;4185483;28;21750;-72
2022/06/28 10:15:53;;;;;;;9.32;4.38;;;;;;;32.68;30.89;100066.41;4191013;28;20405;-73
2022/06/28 10:18:21;;;;;;;7.35;3.65;;;;;;;32.86;30.52;100080.44;4178831;28;21114;-68
2022/06/28 10:20:48;;;;;;;9.80;3.72;;;;;;;32.37;30.37;100064.13;4188160;28;25793;-70
2022/06/28 10:23:45;;;;;;;10.32;4.00;;;;;;;32.26;30.71;100073.66;4191549;28;20398;-72
2022/06/28 10:26:14;;;;;;;9.15;3.60;;;;;;;32.56;30.27;100075.16;4197312;28;20234;-73
2022/06/28 10:28:43;;;;;;;7.45;3.63;;;;;;;32.70;30.58;100079.91;4200887;28;20307;-68
2022/06/28 10:31:22;;;;;;;6.68;3.63;;;;;;;32.75;29.77;100069.59;4188049;28;20267;-67
2022/06/28 10:34:14;;;;;;;8.23;3.53;;;;;;;32.63;29.56;100079.47;4196601;28;22153;-69
2022/06/28 10:36:48;;;;;;;8.50;3.70;;;;;;;32.68;28.53;100080.19;4199907;28;20860;-67
2022/06/28 10:39:19;;;;;;;8.45;3.38;;;;;;;32.43;29.15;100077.81;4187931;28;20602;-67
2022/06/28 10:41:48;;;;;;;9.60;3.47;;;;;;;32.41;28.82;100069.88;4180293;28;20241;-68
2022/06/28 10:44:28;;;;;;;7.68;3.50;;;;;;;32.66;28.46;100079.66;4187306;28;20243;-68
2022/06/28 10:47:00;;;;;;;7.75;3.50;;;;;;;32.79;28.49;100067.88;4188592;28;20234;-68
2022/06/28 10:49:52;;;;;;;16.98;3.97;;;;;;;33.13;27.42;100075.03;4184926;28;22876;-68
2022/06/28 10:52:40;;;;;;;5.80;3.63;;;;;;;33.08;27.61;100083.38;4187224;28;20275;-69
2022/06/28 10:55:06;;;;;;;6.60;3.20;;;;;;;32.62;27.76;100075.09;4203865;28;20281;-69
2022/06/28 10:57:33;;;;;;;6.85;4.05;;;;;;;32.79;28.32;100069.81;4213892;28;20287;-67
2022/06/28 11:00:03;;;;;;;7.97;3.35;;;;;;;33.11;27.96;100070.94;4208916;28;21008;-69
2022/06/28 11:02:46;;;;;;;6.60;3.40;;;;;;;33.14;27.58;100076.66;4209224;28;20274;-69
2022/06/28 11:05:13;;;;;;;7.13;3.28;;;;;;;33.19;26.95;100076.53;4227758;28;21600;-70
2022/06/28 11:07:40;;;;;;;5.55;3.47;;;;;;;33.14;27.06;100070.31;4200854;28;21093;-69
2022/06/28 11:10:10;;;;;;;6.32;3.30;;;;;;;33.21;26.96;100077.06;4212595;28;20722;-70
2022/06/28 11:12:40;;;;;;;11.52;3.60;;;;;;;33.35;25.97;100074.31;4212648;28;20269;-72
2022/06/28 11:15:08;;;;;;;6.80;3.38;;;;;;;33.42;26.47;100066.44;4204526;28;21437;-67
2022/06/28 11:17:43;;;;;;;7.25;3.13;;;;;;;33.46;26.88;100068.56;4205749;28;20248;-73
2022/06/28 11:20:14;;;;;;;5.60;3.10;;;;;;;33.60;26.03;100067.50;4218529;28;21647;-69
2022/06/28 11:22:43;;;;;;;5.57;3.13;;;;;;;33.61;26.03;100074.63;4207469;28;20377;-70
2022/06/28 11:25:12;;;;;;;5.28;3.42;;;;;;;33.72;25.86;100075.25;4208464;28;20474;-67
2022/06/28 11:27:56;;;;;;;7.97;3.42;;;;;;;33.76;26.15;100075.44;4225715;28;20305;-67
2022/06/28 11:30:27;;;;;;;5.05;3.25;;;;;;;33.64;25.34;100075.97;4217611;28;20224;-68
2022/06/28 11:32:57;;;;;;;9.35;3.83;;;;;;;33.95;25.18;100083.56;4205417;28;20362;-69
2022/06/28 11:35:27;;;;;;;8.48;3.38;;;;;;;34.08;25.64;100081.91;4220931;28;20873;-69
2022/06/28 11:37:55;;;;;;;8.57;3.60;;;;;;;34.12;25.97;100078.25;4212468;28;20236;-68
2022/06/28 11:40:44;;;;;;;5.50;3.00;;;;;;;33.91;26.05;100077.06;4202937;28;20247;-68